Time;durP1;ratioP1;P1;durP2;ratioP2;P2;SDS_P1;SDS_P2;PMS_P1;PMS_P2;Temp;Humidity;BMP_temperature;BMP_pressure;BME280_temperature;BME280_humidity;BME280_pressure;Samples;Min_cycle;Max_cycle;Signal;HPM_P1;HPM_P2
2022/06/09 00:00:07;;;;;;;4.07;1.13;;;14.20;99.90;;;;;;5012739;28;20025;-79
2022/06/09 00:02:36;;;;;;;7.80;1.92;;;14.20;99.90;;;;;;5013056;28;20514;-80
2022/06/09 00:05:04;;;;;;;3.28;1.40;;;14.10;99.90;;;;;;5011318;28;20033;-80
2022/06/09 00:07:30;;;;;;;7.03;1.55;;;14.10;99.90;;;;;;4995528;28;20034;-79
2022/06/09 00:10:10;;;;;;;5.80;1.35;;;14.10;99.90;;;;;;5011136;28;20469;-79
2022/06/09 00:12:36;;;;;;;4.80;1.40;;;14.00;99.90;;;;;;5012172;28;20041;-80
2022/06/09 00:15:05;;;;;;;6.85;1.60;;;14.00;99.90;;;;;;5010498;28;20040;-79
2022/06/09 00:17:31;;;;;;;3.33;1.33;;;13.90;99.90;;;;;;5016037;28;20292;-80
2022/06/09 00:19:57;;;;;;;2.22;0.70;;;13.90;99.90;;;;;;5016616;28;20038;-79
2022/06/09 00:22:23;;;;;;;4.10;0.60;;;13.80;99.90;;;;;;5016441;28;20035;-79
2022/06/09 00:24:48;;;;;;;4.88;0.85;;;13.80;99.90;;;;;;5013813;28;20401;-79
2022/06/09 00:27:14;;;;;;;4.38;0.90;;;13.80;99.90;;;;;;5027828;28;20057;-79
2022/06/09 00:29:41;;;;;;;4.13;0.55;;;13.80;99.90;;;;;;5027046;28;20040;-79
2022/06/09 00:32:07;;;;;;;2.00;0.57;;;13.70;99.90;;;;;;5012786;28;20042;-78
2022/06/09 00:34:32;;;;;;;3.25;0.50;;;13.70;99.90;;;;;;5014335;28;20137;-79
2022/06/09 00:36:58;;;;;;;2.95;0.52;;;13.70;99.90;;;;;;4999624;28;20064;-79
2022/06/09 00:39:23;;;;;;;1.98;0.50;;;13.70;99.90;;;;;;5027757;28;20041;-80
2022/06/09 00:41:49;;;;;;;3.20;0.50;;;13.70;99.90;;;;;;5026705;28;20034;-78
2022/06/09 00:44:24;;;;;;;2.83;0.52;;;13.70;99.90;;;;;;5010215;28;20029;-79
2022/06/09 00:47:08;;;;;;;4.22;0.70;;;13.80;99.90;;;;;;5016965;28;20120;-78
2022/06/09 00:49:48;;;;;;;2.67;0.50;;;13.70;99.90;;;;;;5016250;28;20037;-78
2022/06/09 00:52:17;;;;;;;2.20;0.55;;;13.80;99.90;;;;;;4999142;28;20119;-79
2022/06/09 00:54:49;;;;;;;2.22;0.57;;;13.80;99.90;;;;;;5013831;28;20037;-78
2022/06/09 00:57:20;;;;;;;4.25;0.77;;;13.80;99.90;;;;;;5013237;28;20444;-78
2022/06/09 00:59:52;;;;;;;4.88;0.63;;;13.80;99.90;;;;;;4996003;28;20041;-79
2022/06/09 01:02:19;;;;;;;5.00;0.75;;;13.80;99.90;;;;;;5010510;28;20033;-80
2022/06/09 01:04:48;;;;;;;4.88;0.73;;;13.80;99.90;;;;;;5011994;28;20042;-78
2022/06/09 01:07:24;;;;;;;7.20;0.95;;;13.80;99.90;;;;;;5016372;28;20105;-79
2022/06/09 01:09:50;;;;;;;7.00;1.27;;;13.80;99.90;;;;;;5016833;28;22251;-80
2022/06/09 01:12:30;;;;;;;7.38;1.67;;;13.90;99.90;;;;;;4999400;28;20367;-80
2022/06/09 01:15:06;;;;;;;6.22;1.02;;;13.80;99.90;;;;;;5011385;28;20780;-79
2022/06/09 01:17:45;;;;;;;6.40;0.90;;;13.80;99.90;;;;;;5010319;28;20117;-80
2022/06/09 01:20:34;;;;;;;8.60;1.30;;;13.80;99.90;;;;;;5010995;28;20056;-82
2022/06/09 01:23:33;;;;;;;8.93;2.10;;;13.90;99.90;;;;;;5011805;28;20442;-78
2022/06/09 01:26:08;;;;;;;6.90;1.88;;;13.80;99.90;;;;;;5013178;28;20424;-80
2022/06/09 01:28:51;;;;;;;7.82;1.80;;;13.80;99.90;;;;;;5026500;28;20055;-78
2022/06/09 01:31:33;;;;;;;12.63;1.90;;;13.80;99.90;;;;;;5012488;28;20036;-78
2022/06/09 01:34:10;;;;;;;7.90;2.25;;;13.80;99.90;;;;;;4994833;28;20144;-79
2022/06/09 01:36:49;;;;;;;11.05;2.50;;;13.80;99.90;;;;;;5010090;28;20394;-80
2022/06/09 01:39:15;;;;;;;5.90;1.13;;;13.80;99.90;;;;;;4993735;28;20052;-78
2022/06/09 01:41:48;;;;;;;7.20;1.40;;;13.80;99.90;;;;;;4993302;28;20029;-79
2022/06/09 01:44:17;;;;;;;9.90;1.60;;;13.70;99.90;;;;;;4992651;28;20490;-79
2022/06/09 01:46:46;;;;;;;7.65;1.83;;;13.70;99.90;;;;;;5010667;28;20026;-79
2022/06/09 01:49:23;;;;;;;7.43;2.05;;;13.70;99.90;;;;;;4996650;28;20021;-79
2022/06/09 01:51:51;;;;;;;15.07;3.15;;;13.70;99.90;;;;;;5013166;28;20056;-79
2022/06/09 01:54:34;;;;;;;8.40;2.03;;;13.70;99.90;;;;;;5019328;28;20025;-80
2022/06/09 01:57:07;;;;;;;11.63;2.42;;;13.70;99.90;;;;;;4995301;28;20053;-78
2022/06/09 01:59:38;;;;;;;8.15;2.92;;;13.60;99.90;;;;;;5001195;28;20033;-79
2022/06/09 02:02:12;;;;;;;12.02;2.30;;;13.70;99.90;;;;;;4995337;28;20048;-78
2022/06/09 02:04:45;;;;;;;11.05;2.05;;;13.60;99.90;;;;;;5013231;28;20040;-78
2022/06/09 02:07:13;;;;;;;13.55;2.13;;;13.60;99.90;;;;;;5016545;28;20033;-78
2022/06/09 02:09:39;;;;;;;11.05;3.13;;;13.60;99.90;;;;;;4994378;28;20049;-80
2022/06/09 02:12:12;;;;;;;9.55;2.15;;;13.60;99.90;;;;;;5010861;28;20175;-78
2022/06/09 02:14:41;;;;;;;5.68;1.38;;;13.60;99.90;;;;;;5025766;28;20053;-78
2022/06/09 02:17:08;;;;;;;6.93;1.20;;;13.40;99.90;;;;;;5010871;28;20296;-78
2022/06/09 02:19:35;;;;;;;5.72;1.80;;;13.50;99.90;;;;;;5015899;28;20041;-79
2022/06/09 02:22:05;;;;;;;5.43;1.13;;;13.40;99.90;;;;;;5012674;28;20030;-78
2022/06/09 02:24:32;;;;;;;3.93;0.77;;;13.40;99.90;;;;;;5025241;28;20029;-78
2022/06/09 02:26:58;;;;;;;4.13;1.00;;;13.40;99.90;;;;;;5014658;28;20060;-78
2022/06/09 02:29:24;;;;;;;3.58;0.70;;;13.30;99.90;;;;;;5016020;28;20048;-78
2022/06/09 02:31:50;;;;;;;4.78;0.70;;;13.20;99.90;;;;;;5018638;28;20037;-78
2022/06/09 02:34:16;;;;;;;2.88;0.65;;;13.20;99.90;;;;;;5029409;28;20044;-79
2022/06/09 02:36:42;;;;;;;6.47;1.20;;;13.20;99.90;;;;;;4997928;28;20045;-78
2022/06/09 02:39:07;;;;;;;8.00;1.00;;;13.20;99.90;;;;;;5014820;28;20397;-79
2022/06/09 02:41:34;;;;;;;6.35;0.80;;;13.20;99.90;;;;;;5013602;28;20018;-78
2022/06/09 02:43:59;;;;;;;6.05;0.70;;;13.20;99.90;;;;;;5014063;28;20575;-79
2022/06/09 02:46:25;;;;;;;6.57;1.20;;;13.10;99.90;;;;;;5013421;28;20033;-78
2022/06/09 02:48:53;;;;;;;8.18;1.55;;;13.10;99.90;;;;;;5014428;28;20079;-78
2022/06/09 02:51:27;;;;;;;7.72;2.47;;;13.00;99.90;;;;;;5001432;28;20155;-79
2022/06/09 02:53:54;;;;;;;4.15;1.00;;;13.10;99.90;;;;;;5018204;28;20057;-78
2022/06/09 02:56:20;;;;;;;6.82;1.75;;;13.10;99.90;;;;;;5012685;28;20033;-79
2022/06/09 02:58:46;;;;;;;7.78;1.73;;;13.00;99.90;;;;;;5001925;28;20042;-79
2022/06/09 03:01:11;;;;;;;5.85;1.65;;;13.00;99.90;;;;;;5029236;28;20437;-79
2022/06/09 03:03:37;;;;;;;4.60;1.48;;;13.00;99.90;;;;;;5013652;28;20034;-79
2022/06/09 03:06:03;;;;;;;7.38;1.27;;;13.00;99.90;;;;;;5012726;28;20025;-78
2022/06/09 03:08:30;;;;;;;4.72;1.15;;;12.90;99.90;;;;;;5015508;28;20033;-78
2022/06/09 03:10:55;;;;;;;6.65;1.40;;;12.90;99.90;;;;;;5015198;28;20547;-78
2022/06/09 03:13:21;;;;;;;5.45;1.42;;;12.90;99.90;;;;;;5029977;28;20108;-80
2022/06/09 03:15:48;;;;;;;2.90;1.08;;;12.90;99.90;;;;;;4999328;28;20080;-79
2022/06/09 03:18:15;;;;;;;5.75;1.52;;;12.90;99.90;;;;;;5029217;28;20081;-79
2022/06/09 03:20:40;;;;;;;5.38;0.90;;;12.90;99.90;;;;;;5014401;28;20034;-78
2022/06/09 03:23:06;;;;;;;6.82;1.30;;;12.80;99.90;;;;;;5015657;28;20034;-79
2022/06/09 03:25:33;;;;;;;5.78;1.27;;;12.80;99.90;;;;;;5031083;28;20061;-78
2022/06/09 03:27:58;;;;;;;5.80;1.10;;;12.80;99.90;;;;;;5017709;28;20072;-79
2022/06/09 03:30:24;;;;;;;5.30;1.25;;;12.80;99.90;;;;;;5017765;28;20120;-79
2022/06/09 03:32:50;;;;;;;6.10;1.38;;;12.80;99.90;;;;;;5029348;28;20029;-79
2022/06/09 03:35:16;;;;;;;5.68;0.93;;;12.80;99.90;;;;;;5012384;28;20041;-78
2022/06/09 03:37:41;;;;;;;3.63;0.90;;;12.80;99.90;;;;;;5010625;28;20466;-79
2022/06/09 03:40:15;;;;;;;6.00;1.20;;;12.80;99.90;;;;;;5013704;28;20037;-79
2022/06/09 03:42:41;;;;;;;5.13;0.75;;;12.80;99.90;;;;;;5028084;28;20088;-78
2022/06/09 03:45:08;;;;;;;5.93;0.85;;;12.80;99.90;;;;;;5011047;28;20041;-79
2022/06/09 03:47:34;;;;;;;2.83;0.70;;;12.80;99.90;;;;;;5013080;28;20737;-79
2022/06/09 03:49:59;;;;;;;2.67;0.85;;;12.80;99.90;;;;;;5012212;28;20041;-79
2022/06/09 03:52:25;;;;;;;4.50;0.80;;;12.80;99.90;;;;;;4998937;28;20053;-79
2022/06/09 03:54:51;;;;;;;4.22;0.52;;;12.80;99.90;;;;;;5011282;28;20269;-78
2022/06/09 03:57:17;;;;;;;5.07;0.52;;;12.80;99.90;;;;;;5029385;28;20489;-79
2022/06/09 03:59:43;;;;;;;3.05;0.60;;;12.90;99.90;;;;;;5011519;28;20037;-79
2022/06/09 04:02:09;;;;;;;3.67;0.60;;;12.90;99.90;;;;;;5016647;28;20488;-79
2022/06/09 04:04:34;;;;;;;3.00;0.70;;;12.90;99.90;;;;;;5014366;28;20067;-79
2022/06/09 04:07:00;;;;;;;3.35;0.70;;;12.90;99.90;;;;;;4995075;28;20436;-78
2022/06/09 04:09:26;;;;;;;4.20;0.60;;;12.90;99.90;;;;;;5013125;28;20030;-78
2022/06/09 04:11:51;;;;;;;4.65;0.70;;;13.00;99.90;;;;;;5015357;28;20036;-79
2022/06/09 04:14:17;;;;;;;6.80;0.60;;;13.10;99.90;;;;;;5012326;28;20036;-79
2022/06/09 04:16:44;;;;;;;2.97;0.80;;;13.10;99.90;;;;;;5012552;28;20033;-78
2022/06/09 04:19:13;;;;;;;3.80;0.90;;;13.20;99.90;;;;;;5012958;28;20046;-79
2022/06/09 04:21:39;;;;;;;6.30;1.38;;;13.30;99.90;;;;;;5013563;28;22279;-79
2022/06/09 04:24:05;;;;;;;8.73;1.73;;;13.40;99.90;;;;;;5011575;28;20085;-79
2022/06/09 04:26:34;;;;;;;11.32;2.85;;;13.50;99.90;;;;;;5013956;28;20041;-78
2022/06/09 04:29:00;;;;;;;12.38;3.28;;;13.50;99.90;;;;;;5012068;28;20478;-77
2022/06/09 04:31:26;;;;;;;16.17;3.85;;;13.60;99.90;;;;;;5026443;28;20521;-78
2022/06/09 04:33:52;;;;;;;12.32;3.88;;;13.70;99.90;;;;;;4995474;28;20036;-79
2022/06/09 04:36:19;;;;;;;15.85;4.97;;;13.70;99.90;;;;;;5014281;28;20044;-80
2022/06/09 04:38:45;;;;;;;12.00;2.70;;;13.80;99.90;;;;;;4995548;28;20479;-78
2022/06/09 04:41:12;;;;;;;12.85;3.78;;;13.90;99.90;;;;;;5010163;28;20125;-79
2022/06/09 04:43:40;;;;;;;16.73;4.75;;;14.00;99.90;;;;;;5011595;28;20045;-78
2022/06/09 04:46:08;;;;;;;22.13;5.78;;;14.10;99.90;;;;;;5026516;28;20022;-79
2022/06/09 04:48:35;;;;;;;17.10;4.82;;;14.20;99.90;;;;;;5013835;28;20697;-80
2022/06/09 04:51:03;;;;;;;16.00;4.63;;;14.30;99.90;;;;;;5010753;28;20033;-77
2022/06/09 04:53:29;;;;;;;16.02;5.20;;;14.40;99.90;;;;;;4997358;28;20311;-79
2022/06/09 04:55:54;;;;;;;18.58;5.18;;;14.50;99.90;;;;;;5016085;28;20288;-79
2022/06/09 04:58:20;;;;;;;13.10;4.28;;;14.60;99.90;;;;;;5009894;28;20029;-79
2022/06/09 05:00:46;;;;;;;11.55;4.20;;;14.70;99.90;;;;;;5025602;28;20524;-79
2022/06/09 05:03:11;;;;;;;12.18;4.28;;;15.00;99.90;;;;;;4998574;28;20030;-78
2022/06/09 05:05:40;;;;;;;11.90;4.10;;;15.00;99.90;;;;;;5011764;28;20029;-80
2022/06/09 05:08:06;;;;;;;13.70;4.65;;;15.20;99.90;;;;;;5012914;28;20037;-78
2022/06/09 05:10:33;;;;;;;11.70;4.05;;;14.90;99.90;;;;;;5011593;28;20026;-78
2022/06/09 05:12:59;;;;;;;14.20;4.55;;;15.00;99.90;;;;;;4995172;28;20578;-79
2022/06/09 05:15:25;;;;;;;12.15;4.18;;;14.90;99.90;;;;;;5025734;28;20092;-77
2022/06/09 05:17:52;;;;;;;17.45;5.30;;;14.90;99.90;;;;;;5011121;28;20033;-79
2022/06/09 05:20:22;;;;;;;12.85;4.25;;;14.80;99.90;;;;;;5010032;28;20469;-79
2022/06/09 05:22:48;;;;;;;14.68;4.57;;;14.90;99.90;;;;;;4993445;28;20026;-78
2022/06/09 05:25:14;;;;;;;11.55;3.75;;;14.80;99.90;;;;;;5002211;28;20038;-79
2022/06/09 05:27:41;;;;;;;12.18;4.03;;;14.80;99.90;;;;;;4993722;28;20134;-80
2022/06/09 05:30:12;;;;;;;14.98;3.30;;;15.00;99.90;;;;;;5010583;28;20038;-78
2022/06/09 05:32:38;;;;;;;13.30;3.90;;;15.10;99.90;;;;;;5008161;28;20033;-79
2022/06/09 05:35:05;;;;;;;14.35;4.78;;;15.20;99.90;;;;;;5009638;28;20026;-78
2022/06/09 05:44:50;;;;;;;13.93;4.40;;;15.40;99.90;;;;;;5026042;28;20033;-79
2022/06/09 05:45:46;;;;;;;12.30;4.72;;;15.40;99.90;;;;;;5010531;28;20393;-78
2022/06/09 05:48:12;;;;;;;18.25;4.75;;;15.60;99.90;;;;;;5011950;28;20341;-79
2022/06/09 05:50:39;;;;;;;12.07;4.57;;;15.60;99.90;;;;;;5024801;28;20116;-77
2022/06/09 05:53:05;;;;;;;13.85;3.85;;;15.80;99.90;;;;;;5026125;28;20033;-78
2022/06/09 05:55:31;;;;;;;12.05;4.10;;;15.90;99.90;;;;;;5010990;28;20488;-78
2022/06/09 05:57:57;;;;;;;11.55;4.18;;;15.90;99.90;;;;;;5009514;28;20033;-78
2022/06/09 06:00:23;;;;;;;9.23;3.47;;;15.90;99.90;;;;;;5014518;28;20049;-78
2022/06/09 06:02:49;;;;;;;10.98;3.20;;;16.20;99.90;;;;;;5025260;28;20713;-79
2022/06/09 06:07:58;;;;;;;11.95;3.28;;;16.30;99.90;;;;;;5025951;28;20033;-79
2022/06/09 06:10:24;;;;;;;11.80;2.50;;;16.40;99.90;;;;;;5009961;28;20175;-79
2022/06/09 06:12:50;;;;;;;9.15;2.97;;;16.60;99.90;;;;;;4998418;28;20089;-78
2022/06/09 06:15:15;;;;;;;6.03;1.98;;;16.70;99.90;;;;;;5014817;28;20030;-79
2022/06/09 06:17:41;;;;;;;7.88;1.95;;;16.90;99.90;;;;;;4997880;28;20033;-77
2022/06/09 06:20:07;;;;;;;9.88;2.05;;;17.00;99.90;;;;;;5024086;28;20881;-78
2022/06/09 06:22:33;;;;;;;9.88;2.92;;;16.80;99.90;;;;;;5007925;28;20038;-79
2022/06/09 06:24:59;;;;;;;7.55;2.83;;;16.60;99.90;;;;;;5025568;28;20075;-79
2022/06/09 06:27:25;;;;;;;9.15;2.45;;;16.40;99.90;;;;;;5014824;28;20040;-78
2022/06/09 06:29:51;;;;;;;7.82;2.13;;;16.40;99.90;;;;;;4998285;28;20041;-79
2022/06/09 06:32:17;;;;;;;8.35;1.50;;;16.70;99.90;;;;;;5015610;28;20037;-78
2022/06/09 06:34:42;;;;;;;6.10;1.48;;;16.30;99.90;;;;;;4992251;28;20034;-78
2022/06/09 06:37:08;;;;;;;7.15;1.48;;;16.30;99.90;;;;;;5008529;28;20045;-79
2022/06/09 06:39:34;;;;;;;3.08;0.70;;;16.20;99.90;;;;;;5007474;28;20385;-78
2022/06/09 06:41:59;;;;;;;3.47;1.23;;;16.20;99.90;;;;;;5009741;28;20029;-78
2022/06/09 06:44:33;;;;;;;2.78;0.70;;;16.40;99.90;;;;;;4993627;28;20396;-77
2022/06/09 06:46:59;;;;;;;5.93;0.70;;;16.30;99.90;;;;;;5011369;28;20287;-79
2022/06/09 06:49:24;;;;;;;3.60;0.68;;;16.20;99.90;;;;;;5024708;28;20124;-79
2022/06/09 06:51:50;;;;;;;5.90;0.60;;;16.10;99.90;;;;;;5025859;28;20025;-78
2022/06/09 06:54:15;;;;;;;4.32;0.85;;;16.10;99.90;;;;;;5007495;28;20053;-79
2022/06/09 06:56:41;;;;;;;6.88;1.17;;;16.20;99.90;;;;;;4996088;28;20488;-78
2022/06/09 06:59:07;;;;;;;4.43;0.65;;;16.40;99.90;;;;;;5007991;28;20068;-79
2022/06/09 07:01:32;;;;;;;3.42;0.52;;;16.80;99.90;;;;;;5009652;28;20612;-79
2022/06/09 07:03:58;;;;;;;4.53;0.50;;;17.10;99.90;;;;;;5009589;28;20025;-79
2022/06/09 07:06:24;;;;;;;3.35;0.47;;;17.30;99.90;;;;;;5009915;28;20057;-79
2022/06/09 07:08:50;;;;;;;3.50;0.50;;;17.30;99.90;;;;;;5013455;28;22131;-77
2022/06/09 07:11:16;;;;;;;1.95;0.73;;;17.30;99.90;;;;;;4991733;28;20485;-79
2022/06/09 07:13:42;;;;;;;6.82;0.60;;;17.50;99.90;;;;;;5008495;28;20040;-78
2022/06/09 07:16:09;;;;;;;6.30;0.65;;;17.30;99.90;;;;;;5027946;28;20037;-78
2022/06/09 07:18:37;;;;;;;2.70;0.50;;;17.60;99.90;;;;;;5017340;28;20045;-78
2022/06/09 07:21:03;;;;;;;4.70;0.40;;;17.80;99.90;;;;;;5013888;28;20043;-79
2022/06/09 07:23:30;;;;;;;4.60;0.60;;;17.90;99.90;;;;;;5013909;28;20049;-78
2022/06/09 07:25:57;;;;;;;3.25;0.50;;;17.80;99.90;;;;;;5028809;28;20534;-78
2022/06/09 07:28:24;;;;;;;1.73;0.40;;;18.00;99.90;;;;;;5010405;28;20199;-78
2022/06/09 07:30:55;;;;;;;4.07;0.65;;;18.10;99.90;;;;;;5014415;28;20099;-79
2022/06/09 07:33:21;;;;;;;3.75;0.50;;;18.10;99.90;;;;;;5014524;28;20032;-78
2022/06/09 07:35:51;;;;;;;2.85;0.32;;;18.20;99.90;;;;;;5027359;28;20053;-78
2022/06/09 07:38:17;;;;;;;;;;;18.30;99.90;;;;;;5013010;28;20159;-78
2022/06/09 07:40:43;;;;;;;3.20;0.73;;;18.20;99.90;;;;;;5013453;28;22131;-78
2022/06/09 07:43:10;;;;;;;2.45;0.30;;;18.30;99.90;;;;;;5011737;28;20041;-78
2022/06/09 07:45:37;;;;;;;2.78;0.30;;;18.50;99.90;;;;;;5027628;28;20456;-78
2022/06/09 07:48:04;;;;;;;2.75;0.30;;;18.50;99.90;;;;;;5011709;28;20041;-78
2022/06/09 07:50:31;;;;;;;2.78;0.30;;;17.90;99.90;;;;;;5027270;28;20121;-79
2022/06/09 07:52:57;;;;;;;1.48;0.30;;;17.90;99.90;;;;;;5012522;28;20025;-81
2022/06/09 07:55:24;;;;;;;1.00;0.40;;;17.90;99.90;;;;;;5017216;28;20025;-77
2022/06/09 07:57:51;;;;;;;3.05;0.38;;;18.00;99.90;;;;;;5012947;28;20041;-78
2022/06/09 08:00:18;;;;;;;3.08;0.32;;;18.10;99.90;;;;;;5026909;28;20503;-78
2022/06/09 08:02:44;;;;;;;1.45;0.30;;;18.60;99.90;;;;;;5012676;28;20499;-78
2022/06/09 08:05:12;;;;;;;2.88;0.40;;;18.30;99.90;;;;;;5027349;28;20638;-78
2022/06/09 08:07:38;;;;;;;1.35;0.30;;;18.30;99.90;;;;;;5013701;28;20045;-78
2022/06/09 08:10:05;;;;;;;2.13;0.38;;;18.50;99.90;;;;;;5016308;28;20049;-78
2022/06/09 08:12:31;;;;;;;3.30;0.50;;;18.30;99.90;;;;;;5028520;28;20374;-78
2022/06/09 08:14:57;;;;;;;1.70;0.40;;;18.20;99.90;;;;;;5011460;28;20033;-78
2022/06/09 08:17:23;;;;;;;2.95;0.30;;;18.70;99.90;;;;;;5012804;28;20454;-78
2022/06/09 08:19:49;;;;;;;2.97;0.60;;;18.80;99.90;;;;;;5015627;28;20117;-78
2022/06/09 08:22:16;;;;;;;3.08;0.30;;;18.90;99.90;;;;;;5011729;28;20060;-79
2022/06/09 08:24:41;;;;;;;3.78;0.60;;;18.80;99.90;;;;;;5010998;28;20570;-80
2022/06/09 08:27:07;;;;;;;2.15;0.50;;;18.60;99.90;;;;;;5015964;28;20042;-79
2022/06/09 08:29:33;;;;;;;2.65;0.55;;;17.80;99.90;;;;;;5017271;28;20105;-79
2022/06/09 08:31:59;;;;;;;2.88;0.30;;;17.60;99.90;;;;;;5016685;28;20045;-78
2022/06/09 08:34:25;;;;;;;2.65;0.30;;;17.60;99.90;;;;;;5012976;28;20033;-79
2022/06/09 08:36:50;;;;;;;3.20;0.40;;;18.00;99.90;;;;;;5009613;28;20192;-79
2022/06/09 08:39:16;;;;;;;2.95;0.40;;;18.60;99.90;;;;;;5013624;28;20111;-78
2022/06/09 08:42:03;;;;;;;4.32;0.50;;;18.90;99.90;;;;;;5015345;28;20841;-78
2022/06/09 08:44:43;;;;;;;1.65;0.30;;;19.20;99.90;;;;;;5011636;28;20036;-79
2022/06/09 08:47:22;;;;;;;2.63;0.32;;;19.80;99.90;;;;;;5015249;28;20370;-78
2022/06/09 08:50:06;;;;;;;2.90;0.50;;;19.30;99.90;;;;;;5011020;28;20029;-80
2022/06/09 08:52:37;;;;;;;3.47;0.50;;;18.90;99.90;;;;;;5013946;28;20033;-79
2022/06/09 08:55:15;;;;;;;2.95;0.40;;;19.40;99.90;;;;;;5010274;28;20547;-78
2022/06/09 08:57:44;;;;;;;2.10;0.30;;;19.70;99.90;;;;;;5012521;28;20029;-78
2022/06/09 09:00:14;;;;;;;3.38;0.30;;;19.10;99.90;;;;;;5026484;28;20038;-78
2022/06/09 09:02:42;;;;;;;;;;;18.60;99.90;;;;;;5027551;28;20036;-78
2022/06/09 09:05:23;;;;;;;1.67;0.40;;;19.20;99.90;;;;;;5010051;28;20332;-78
2022/06/09 09:07:51;;;;;;;3.28;0.47;;;19.40;99.90;;;;;;5026929;28;20366;-78
2022/06/09 09:10:43;;;;;;;1.80;0.50;;;18.90;99.90;;;;;;5011701;28;20029;-79
2022/06/09 09:13:14;;;;;;;2.17;0.40;;;18.70;99.90;;;;;;4991900;28;20048;-78
2022/06/09 09:15:46;;;;;;;3.13;0.40;;;19.40;99.90;;;;;;5011541;28;20022;-78
2022/06/09 09:18:48;;;;;;;3.60;0.40;;;19.60;99.90;;;;;;5010035;28;20030;-78
2022/06/09 09:21:27;;;;;;;2.85;0.20;;;19.60;99.90;;;;;;5010813;28;20421;-78
2022/06/09 09:23:59;;;;;;;1.45;0.30;;;19.80;99.90;;;;;;5010588;28;20029;-79
2022/06/09 09:26:46;;;;;;;2.35;0.55;;;19.60;99.90;;;;;;5010350;28;20026;-79
2022/06/09 09:29:25;;;;;;;3.28;0.40;;;18.90;99.90;;;;;;4993253;28;20022;-85
2022/06/09 09:32:14;;;;;;;3.50;0.40;;;18.50;99.90;;;;;;5012165;28;20048;-77
2022/06/09 09:34:44;;;;;;;0.95;0.35;;;18.40;99.90;;;;;;5010438;28;20092;-78
2022/06/09 09:37:18;;;;;;;3.10;0.30;;;18.50;99.90;;;;;;5011373;28;20405;-78
2022/06/09 09:39:58;;;;;;;1.48;0.20;;;18.50;99.90;;;;;;5015823;28;22651;-78
2022/06/09 09:42:29;;;;;;;;;;;18.40;99.90;;;;;;4995148;28;20026;-79
2022/06/09 09:45:16;;;;;;;1.83;0.13;;;18.20;99.90;;;;;;5009842;28;20061;-78
2022/06/09 09:47:55;;;;;;;2.28;0.10;;;17.90;99.90;;;;;;4999655;28;20094;-78
2022/06/09 09:50:49;;;;;;;1.83;0.20;;;17.90;99.90;;;;;;5010252;28;20038;-78
2022/06/09 09:53:17;;;;;;;3.38;0.25;;;17.70;99.90;;;;;;5011211;28;20040;-78
2022/06/09 09:56:02;;;;;;;2.17;0.20;;;17.80;99.90;;;;;;5010295;28;20323;-79
2022/06/09 09:58:48;;;;;;;1.35;0.20;;;18.10;99.90;;;;;;5010940;28;20052;-79
2022/06/09 10:01:14;;;;;;;3.85;0.30;;;19.10;99.90;;;;;;5026550;28;20033;-79
2022/06/09 10:09:36;;;;;;;2.55;0.22;;;20.20;99.90;;;;;;5009991;28;20425;-78
2022/06/09 10:12:16;;;;;;;2.80;0.30;;;20.20;99.90;;;;;;5001417;28;20148;-79
2022/06/09 10:14:54;;;;;;;1.83;0.28;;;20.00;99.90;;;;;;5007211;28;20033;-78
2022/06/09 10:17:49;;;;;;;4.00;0.20;;;19.90;99.90;;;;;;5008817;28;20124;-78
2022/06/09 10:20:21;;;;;;;3.60;0.63;;;20.30;99.90;;;;;;5006073;28;20045;-79
2022/06/09 10:23:17;;;;;;;3.40;0.30;;;20.80;99.90;;;;;;5011844;28;20021;-79
2022/06/09 10:26:02;;;;;;;1.95;0.20;;;20.50;99.90;;;;;;4991783;28;20041;-79
2022/06/09 10:28:40;;;;;;;2.20;0.30;;;20.10;99.90;;;;;;5007171;28;20034;-79
2022/06/09 10:31:30;;;;;;;2.88;0.28;;;19.50;99.90;;;;;;5023964;28;20033;-78
2022/06/09 10:34:12;;;;;;;2.65;0.30;;;19.70;99.90;;;;;;5008938;28;20041;-80
2022/06/09 10:36:56;;;;;;;3.63;0.30;;;20.00;99.90;;;;;;4991559;28;20484;-78
2022/06/09 10:39:43;;;;;;;2.65;0.40;;;19.50;99.90;;;;;;5014446;28;20396;-81
2022/06/09 10:42:30;;;;;;;3.45;0.38;;;17.80;99.90;;;;;;5009927;28;20469;-80
2022/06/09 10:45:16;;;;;;;3.97;0.30;;;17.00;99.90;;;;;;4993587;28;20044;-79
2022/06/09 10:56:31;;;;;;;0.55;0.20;;;16.00;99.90;;;;;;5015373;28;20030;-79
2022/06/09 10:59:10;;;;;;;0.90;0.20;;;16.20;99.90;;;;;;5014170;28;20574;-78
2022/06/09 11:01:36;;;;;;;0.43;0.10;;;16.10;99.90;;;;;;5028694;28;20029;-78
2022/06/09 11:04:06;;;;;;;0.32;0.10;;;16.30;99.90;;;;;;4992894;28;20868;-79
2022/06/09 11:06:46;;;;;;;0.17;0.10;;;16.30;99.90;;;;;;5015339;28;20034;-79
2022/06/09 11:09:49;;;;;;;0.98;0.30;;;16.30;99.90;;;;;;4994373;28;20409;-78
2022/06/09 11:12:57;;;;;;;1.40;0.20;;;16.40;99.90;;;;;;5011883;28;20033;-78
2022/06/09 11:15:46;;;;;;;1.67;0.20;;;16.60;99.90;;;;;;5002169;28;20742;-78
2022/06/09 11:18:20;;;;;;;1.23;0.30;;;16.80;99.90;;;;;;4995694;28;20107;-77
2022/06/09 11:20:52;;;;;;;1.05;0.30;;;16.90;99.90;;;;;;5010524;28;20029;-78
2022/06/09 11:23:53;;;;;;;1.75;0.28;;;17.10;99.90;;;;;;5010768;28;20067;-77
2022/06/09 11:26:40;;;;;;;1.15;0.20;;;17.50;99.90;;;;;;5011684;28;20054;-79
2022/06/09 11:29:30;;;;;;;1.95;0.40;;;17.70;99.90;;;;;;4994435;28;20462;-80
2022/06/09 11:32:33;;;;;;;3.65;0.65;;;17.90;99.90;;;;;;4990373;28;20041;-78
2022/06/09 11:35:22;;;;;;;2.40;0.40;;;18.80;99.90;;;;;;4990404;28;20037;-79
2022/06/09 11:38:00;;;;;;;2.75;0.60;;;19.30;99.90;;;;;;5013611;28;20036;-78
2022/06/09 11:40:48;;;;;;;2.50;0.60;;;19.70;99.90;;;;;;5015363;28;20046;-79
2022/06/09 11:43:38;;;;;;;2.33;0.50;;;19.40;99.90;;;;;;5013885;28;20029;-78
2022/06/09 11:46:18;;;;;;;4.78;0.80;;;19.00;99.90;;;;;;5008076;28;20046;-79
2022/06/09 11:48:50;;;;;;;3.97;0.70;;;18.60;99.90;;;;;;5014770;28;20116;-78
2022/06/09 11:51:19;;;;;;;2.60;0.45;;;18.30;99.90;;;;;;4998297;28;20037;-78
2022/06/09 11:53:54;;;;;;;3.35;0.60;;;18.10;99.90;;;;;;5009702;28;20400;-79
2022/06/09 11:56:43;;;;;;;4.15;0.50;;;17.90;99.90;;;;;;5012024;28;20037;-79
2022/06/09 11:59:12;;;;;;;6.68;0.60;;;17.70;99.90;;;;;;5016150;28;20048;-78
2022/06/09 12:01:37;;;;;;;2.67;0.40;;;17.70;99.90;;;;;;5013613;28;20269;-78
2022/06/09 12:04:27;;;;;;;2.17;0.30;;;17.50;99.90;;;;;;4994605;28;20208;-79
2022/06/09 12:07:02;;;;;;;;;;;17.60;99.90;;;;;;5012381;28;20515;-78
2022/06/09 12:09:35;;;;;;;2.63;0.60;;;17.60;99.90;;;;;;5011013;28;19924;-79
2022/06/09 12:12:21;;;;;;;1.35;0.30;;;17.60;99.90;;;;;;5025325;28;20088;-78
2022/06/09 12:14:47;;;;;;;2.80;0.35;;;17.70;99.90;;;;;;5010659;28;20056;-79
2022/06/09 12:17:12;;;;;;;2.90;0.32;;;18.00;99.90;;;;;;5010478;28;20131;-79
2022/06/09 12:19:57;;;;;;;2.78;0.30;;;18.40;99.90;;;;;;5010348;28;20034;-80
2022/06/09 12:22:59;;;;;;;2.15;0.25;;;18.60;99.90;;;;;;4994794;28;20032;-78
2022/06/09 12:25:36;;;;;;;3.47;0.30;;;18.70;99.90;;;;;;5008539;28;20440;-79
2022/06/09 12:28:22;;;;;;;3.05;0.20;;;19.00;99.90;;;;;;5023291;28;20063;-78
2022/06/09 12:31:07;;;;;;;3.78;0.20;;;19.50;99.90;;;;;;5008814;28;20116;-78
2022/06/09 12:33:34;;;;;;;3.97;0.28;;;19.90;99.90;;;;;;5007162;28;20037;-78
2022/06/09 12:36:03;;;;;;;3.83;0.70;;;19.30;99.90;;;;;;5006659;28;20053;-78
2022/06/09 12:38:53;;;;;;;1.23;0.30;;;19.50;99.90;;;;;;4997023;28;20048;-80
2022/06/09 12:41:34;;;;;;;1.88;0.20;;;20.00;99.90;;;;;;5010180;28;20033;-77
2022/06/09 12:44:24;;;;;;;1.70;0.20;;;19.70;99.90;;;;;;5010623;28;20100;-78
2022/06/09 12:47:18;;;;;;;1.60;0.20;;;19.20;99.90;;;;;;5009407;28;20163;-78
2022/06/09 12:49:55;;;;;;;1.98;0.20;;;19.30;99.90;;;;;;4990720;28;20436;-85
2022/06/09 12:52:26;;;;;;;2.63;0.30;;;19.30;99.90;;;;;;4991341;28;20025;-78
2022/06/09 12:55:19;;;;;;;2.47;0.13;;;19.20;99.90;;;;;;5009185;28;20025;-78
2022/06/09 12:57:49;;;;;;;1.60;0.20;;;19.50;99.90;;;;;;5003873;28;20049;-82
2022/06/09 13:00:23;;;;;;;2.13;0.22;;;19.60;99.90;;;;;;5009817;28;20116;-78
2022/06/09 13:02:49;;;;;;;1.73;0.20;;;19.70;99.90;;;;;;4998324;28;20034;-78
2022/06/09 13:05:29;;;;;;;2.15;0.22;;;19.80;99.90;;;;;;5014939;28;20037;-78
2022/06/09 13:08:11;;;;;;;1.00;0.20;;;19.90;99.90;;;;;;5010868;28;20128;-78
2022/06/09 13:10:40;;;;;;;1.75;0.30;;;19.90;99.90;;;;;;4994722;28;20039;-79
2022/06/09 13:13:14;;;;;;;1.67;0.20;;;20.50;99.90;;;;;;5010863;28;20044;-78
2022/06/09 13:16:01;;;;;;;1.88;0.20;;;20.30;99.90;;;;;;5011084;28;20551;-77
2022/06/09 13:18:30;;;;;;;2.17;0.20;;;20.10;99.90;;;;;;5009891;28;20109;-78
2022/06/09 13:21:11;;;;;;;2.10;0.20;;;20.00;99.90;;;;;;5008949;28;20042;-78
2022/06/09 13:23:39;;;;;;;2.85;0.20;;;19.70;99.90;;;;;;5010719;28;20032;-78
2022/06/09 13:26:06;;;;;;;1.45;0.20;;;19.90;99.90;;;;;;5009862;28;20041;-78
2022/06/09 13:28:53;;;;;;;2.15;0.20;;;20.10;99.90;;;;;;5023330;28;20054;-78
2022/06/09 13:31:31;;;;;;;1.70;0.20;;;19.90;99.90;;;;;;4992686;28;20033;-78